createdAt,value
2023-04-23T00:00:15.961Z,43.16
2023-04-23T00:03:27.274Z,42.63
2023-04-23T00:06:33.958Z,42.69
2023-04-23T00:09:42.348Z,43.30
2023-04-23T00:12:51.540Z,43.08
2023-04-23T00:15:58.800Z,43.97
2023-04-23T00:19:04.254Z,43.41
2023-04-23T00:22:10.706Z,44.38
2023-04-23T00:25:16.234Z,43.55
2023-04-23T00:28:25.484Z,44.12
2023-04-23T00:31:30.966Z,43.92
2023-04-23T00:34:37.477Z,44.70
2023-04-23T00:37:43.074Z,44.51
2023-04-23T00:40:49.832Z,45.01
2023-04-23T00:43:59.687Z,44.94
2023-04-23T00:47:07.560Z,44.32
2023-04-23T00:50:13.422Z,44.89
2023-04-23T00:53:19.743Z,44.62
2023-04-23T00:56:26.365Z,44.31
2023-04-23T00:59:35.741Z,45.09
2023-04-23T01:02:42.773Z,45.29
2023-04-23T01:05:50.357Z,44.48
2023-04-23T01:08:56.027Z,45.38
2023-04-23T01:12:05.689Z,45.63
2023-04-23T01:15:14.986Z,45.18
2023-04-23T01:18:22.181Z,44.76
2023-04-23T01:21:29.401Z,45.14
2023-04-23T01:24:39.436Z,45.77
2023-04-23T01:27:45.239Z,45.17
2023-04-23T01:30:52.971Z,45.12
2023-04-23T01:34:00.588Z,46.17
2023-04-23T01:37:08.631Z,45.95
2023-04-23T01:40:17.266Z,46.13
2023-04-23T01:43:25.524Z,45.97
2023-04-23T01:46:31.604Z,46.75
2023-04-23T01:49:38.009Z,46.70
2023-04-23T01:52:45.104Z,46.82
2023-04-23T01:55:55.603Z,46.83
2023-04-23T01:59:02.182Z,47.47
2023-04-23T02:02:10.958Z,46.84
2023-04-23T02:05:22.193Z,47.44
2023-04-23T02:08:27.917Z,47.05
2023-04-23T02:11:37.464Z,47.42
2023-04-23T02:14:43.102Z,47.66
2023-04-23T02:17:51.469Z,48.51
2023-04-23T02:21:00.049Z,48.59
2023-04-23T02:24:07.336Z,47.76
2023-04-23T02:27:15.627Z,47.99
2023-04-23T02:30:23.189Z,48.71
2023-04-23T02:33:29.019Z,49.03
2023-04-23T02:36:35.793Z,49.14
2023-04-23T02:39:41.869Z,48.96
2023-04-23T02:42:51.709Z,49.40
2023-04-23T02:45:57.164Z,49.79
2023-04-23T02:49:03.560Z,49.88
2023-04-23T02:52:09.369Z,49.56
2023-04-23T02:55:15.921Z,49.42
2023-04-23T02:58:24.803Z,49.79
2023-04-23T03:01:33.900Z,49.86
2023-04-23T03:04:40.656Z,49.89
2023-04-23T03:07:47.197Z,50.74
2023-04-23T03:10:52.974Z,50.78
2023-04-23T03:14:02.736Z,50.11
2023-04-23T03:17:08.216Z,50.98
2023-04-23T03:20:15.777Z,50.32
2023-04-23T03:23:21.305Z,50.35
2023-04-23T03:26:28.179Z,51.05
2023-04-23T03:29:36.507Z,51.47
2023-04-23T03:32:42.884Z,50.91
2023-04-23T03:35:50.409Z,51.46
2023-04-23T03:39:02.626Z,51.51
2023-04-23T03:42:17.814Z,51.30
2023-04-23T03:45:27.434Z,51.95
2023-04-23T03:48:33.885Z,51.77
2023-04-23T03:51:44.132Z,52.07
2023-04-23T03:54:49.870Z,52.00
2023-04-23T03:57:57.504Z,52.20
2023-04-23T04:01:07.580Z,52.30
2023-04-23T04:04:14.468Z,52.22
2023-04-23T04:07:20.062Z,52.45
2023-04-23T04:10:26.571Z,52.02
2023-04-23T04:13:32.027Z,52.05
2023-04-23T04:16:41.089Z,51.94
2023-04-23T04:19:47.027Z,52.05
2023-04-23T04:22:53.304Z,52.62
2023-04-23T04:26:00.170Z,52.36
2023-04-23T04:29:06.957Z,52.00
2023-04-23T04:32:15.567Z,51.98
2023-04-23T04:35:21.969Z,51.69
2023-04-23T04:38:30.711Z,51.85
2023-04-23T04:41:37.190Z,51.94
2023-04-23T04:44:43.999Z,51.58
2023-04-23T04:47:53.155Z,52.29
2023-04-23T04:50:58.955Z,52.53
2023-04-23T04:54:05.366Z,51.59
2023-04-23T04:57:11.248Z,51.69
2023-04-23T05:00:29.860Z,51.04
2023-04-23T05:03:39.553Z,51.83
2023-04-23T05:06:46.046Z,51.07
2023-04-23T05:09:51.513Z,50.51
2023-04-23T05:12:59.929Z,50.09
2023-04-23T05:16:05.401Z,50.38
2023-04-23T05:19:14.487Z,50.60
2023-04-23T05:22:20.149Z,49.48
2023-04-23T05:25:26.535Z,49.22
2023-04-23T05:28:32.047Z,49.70
2023-04-23T05:31:38.582Z,49.35
2023-04-23T05:34:46.797Z,49.63
2023-04-23T05:37:53.098Z,49.26
2023-04-23T05:41:01.857Z,48.45
2023-04-23T05:44:08.450Z,48.70
2023-04-23T05:47:17.075Z,47.98
2023-04-23T05:50:27.057Z,48.29
2023-04-23T05:53:33.309Z,47.27
2023-04-23T05:56:39.885Z,47.17
2023-04-23T05:59:45.347Z,47.03
2023-04-23T06:02:52.308Z,47.25
2023-04-23T06:06:00.961Z,47.13
2023-04-23T06:09:07.670Z,46.98
2023-04-23T06:12:15.032Z,47.01
2023-04-23T06:15:27.329Z,46.38
2023-04-23T06:18:32.946Z,46.33
2023-04-23T06:21:42.449Z,45.63
2023-04-23T06:24:47.880Z,45.14
2023-04-23T06:27:54.150Z,44.75
2023-04-23T06:31:04.148Z,44.50
2023-04-23T06:34:10.557Z,43.56
2023-04-23T06:37:19.011Z,43.55
2023-04-23T06:40:25.350Z,43.16
2023-04-23T06:43:31.093Z,42.87
2023-04-23T06:47:27.582Z,42.18
2023-04-23T06:50:33.163Z,41.99
2023-04-23T06:53:42.711Z,41.30
2023-04-23T06:56:48.248Z,40.76
2023-04-23T06:59:55.214Z,40.21
2023-04-23T07:03:07.367Z,39.21
2023-04-23T07:06:14.027Z,38.98
2023-04-23T07:09:23.468Z,39.20
2023-04-23T07:12:29.986Z,38.87
2023-04-23T07:15:35.934Z,38.30
2023-04-23T07:18:42.512Z,37.55
2023-04-23T07:21:48.422Z,38.23
2023-04-23T07:24:57.804Z,37.50
2023-04-23T07:28:03.437Z,37.88
2023-04-23T07:31:10.796Z,37.05
2023-04-23T07:34:16.550Z,36.87
2023-04-23T07:37:22.855Z,37.52
2023-04-23T07:40:31.088Z,37.58
2023-04-23T07:43:37.802Z,37.38
2023-04-23T07:46:43.258Z,36.83
2023-04-23T07:49:49.695Z,36.66
2023-04-23T07:52:55.524Z,35.93
2023-04-23T07:56:04.771Z,35.80
2023-04-23T07:59:10.264Z,35.26
2023-04-23T08:02:18.903Z,35.41
2023-04-23T08:05:24.675Z,35.52
2023-04-23T08:08:31.134Z,35.44
2023-04-23T08:11:39.435Z,35.68
2023-04-23T08:14:47.822Z,35.43
2023-04-23T08:17:57.701Z,36.25
2023-04-23T08:21:05.133Z,35.75
2023-04-23T08:24:11.038Z,35.92
2023-04-23T08:27:20.350Z,35.90
2023-04-23T08:30:25.970Z,35.69
2023-04-23T08:33:32.706Z,35.35
2023-04-23T08:36:38.212Z,34.61
2023-04-23T08:39:44.783Z,34.95
2023-04-23T08:43:00.910Z,35.13
2023-04-23T08:46:08.006Z,35.16
2023-04-23T08:49:19.599Z,34.10
2023-04-23T08:52:29.153Z,33.25
2023-04-23T08:55:38.413Z,33.13
2023-04-23T08:58:50.575Z,33.14
2023-04-23T09:01:57.998Z,32.32
2023-04-23T09:05:07.131Z,31.88
2023-04-23T09:08:14.492Z,30.92
2023-04-23T09:11:22.595Z,31.53
2023-04-23T09:14:30.947Z,31.24
2023-04-23T09:17:40.582Z,30.53
2023-04-23T09:20:48.031Z,30.73
2023-04-23T09:23:55.280Z,30.94
2023-04-23T09:27:03.161Z,30.69
2023-04-23T09:30:15.655Z,30.55
2023-04-23T09:33:21.309Z,31.09
2023-04-23T09:36:28.371Z,31.35
2023-04-23T09:39:36.202Z,31.42
2023-04-23T09:42:42.624Z,31.32
2023-04-23T09:45:59.713Z,31.18
2023-04-23T09:49:08.042Z,30.93
2023-04-23T09:52:13.639Z,30.82
2023-04-23T09:55:36.043Z,31.69
2023-04-23T09:58:41.656Z,31.49
2023-04-23T10:01:52.294Z,31.40
2023-04-23T10:05:06.921Z,31.58
2023-04-23T10:08:26.296Z,31.45
2023-04-23T10:11:33.210Z,31.46
2023-04-23T10:14:43.040Z,31.29
2023-04-23T10:17:52.079Z,31.10
2023-04-23T10:20:59.208Z,30.57
2023-04-23T10:24:06.884Z,31.04
2023-04-23T10:30:29.849Z,31.64
2023-04-23T10:33:49.362Z,31.67
2023-04-23T10:37:04.905Z,31.70
2023-04-23T10:40:16.548Z,31.55
2023-04-23T10:43:23.692Z,30.94
2023-04-23T10:46:36.399Z,31.16
2023-04-23T10:49:48.129Z,31.63
2023-04-23T10:52:57.830Z,30.85
2023-04-23T10:56:11.166Z,30.65
2023-04-23T10:59:27.222Z,30.56
2023-04-23T11:02:47.988Z,30.22
2023-04-23T11:05:58.129Z,30.48
2023-04-23T11:09:23.669Z,30.40
2023-04-23T11:12:39.142Z,30.50
2023-04-23T11:15:45.823Z,30.14
2023-04-23T11:19:03.200Z,30.09
2023-04-23T11:22:19.648Z,30.75
2023-04-23T11:25:29.316Z,29.60
2023-04-23T11:28:41.744Z,30.01
2023-04-23T11:32:01.848Z,29.71
2023-04-23T11:35:13.558Z,29.89
2023-04-23T11:38:24.307Z,30.29
2023-04-23T11:41:30.496Z,29.66
2023-04-23T11:44:37.061Z,29.96
2023-04-23T11:47:42.600Z,29.41
2023-04-23T11:50:49.818Z,29.22
2023-04-23T11:53:58.399Z,28.70
2023-04-23T11:57:07.191Z,28.61
2023-04-23T12:00:22.024Z,28.33
2023-04-23T12:03:30.760Z,28.57
2023-04-23T12:06:36.572Z,28.92
2023-04-23T12:09:49.537Z,28.71
2023-04-23T12:12:56.027Z,28.48
2023-04-23T12:16:05.394Z,28.45
2023-04-23T12:19:19.106Z,28.12
2023-04-23T12:22:31.486Z,28.00
2023-04-23T12:25:40.741Z,28.39
2023-04-23T12:28:50.950Z,28.13
2023-04-23T12:32:01.717Z,28.52
2023-04-23T12:35:10.344Z,28.07
2023-04-23T12:38:26.949Z,27.97
2023-04-23T12:41:36.137Z,28.13
2023-04-23T12:44:42.369Z,28.09
2023-04-23T12:47:48.784Z,28.23
2023-04-23T12:50:54.386Z,28.59
2023-04-23T12:54:01.061Z,28.06
2023-04-23T12:57:15.073Z,27.32
2023-04-23T13:00:21.727Z,28.38
2023-04-23T13:03:27.953Z,28.63
2023-04-23T13:06:34.925Z,27.90
2023-04-23T13:09:40.652Z,28.14
2023-04-23T13:12:50.092Z,28.15
2023-04-23T13:15:55.959Z,27.93
2023-04-23T13:19:04.161Z,28.36
2023-04-23T13:22:09.682Z,28.01
2023-04-23T13:25:16.044Z,27.95
2023-04-23T13:28:24.410Z,28.21
2023-04-23T13:31:31.879Z,28.13
2023-04-23T13:34:37.441Z,27.72
2023-04-23T13:37:44.255Z,27.76
2023-04-23T13:40:49.770Z,28.73
2023-04-23T13:43:59.121Z,28.13
2023-04-23T13:47:04.787Z,27.38
2023-04-23T13:50:12.190Z,27.79
2023-04-23T13:53:17.922Z,27.16
2023-04-23T13:56:24.568Z,27.58
2023-04-23T13:59:33.262Z,27.76
2023-04-23T14:02:39.712Z,27.51
2023-04-23T14:05:45.267Z,27.22
2023-04-23T14:08:51.680Z,27.36
2023-04-23T14:11:57.287Z,27.68
2023-04-23T14:15:06.783Z,27.52
2023-04-23T14:18:12.415Z,27.57
2023-04-23T14:21:18.748Z,27.38
2023-04-23T14:24:31.825Z,27.62
2023-04-23T14:27:47.711Z,27.33
2023-04-23T14:31:00.142Z,26.91
2023-04-23T14:34:06.656Z,27.79
2023-04-23T14:37:12.877Z,26.73
2023-04-23T14:40:20.091Z,27.12
2023-04-23T14:43:26.007Z,26.66
2023-04-23T14:46:35.729Z,26.97
2023-04-23T14:49:42.240Z,26.93
2023-04-23T14:52:52.437Z,26.76
2023-04-23T14:55:58.097Z,26.68
2023-04-23T14:59:05.776Z,26.50
2023-04-23T15:02:14.640Z,26.19
2023-04-23T15:05:21.446Z,26.57
2023-04-23T15:08:26.925Z,26.38
2023-04-23T15:11:33.706Z,26.63
2023-04-23T15:14:41.509Z,26.67
2023-04-23T15:17:51.295Z,27.71
2023-04-23T15:20:57.501Z,28.65
2023-04-23T15:24:04.332Z,28.44
2023-04-23T15:27:15.227Z,29.55
2023-04-23T15:30:23.159Z,29.75
2023-04-23T15:33:33.540Z,29.53
2023-04-23T15:36:40.442Z,29.19
2023-04-23T15:39:46.066Z,29.67
2023-04-23T15:42:53.038Z,29.46
2023-04-23T15:45:59.198Z,28.67
2023-04-23T15:49:08.539Z,28.92
2023-04-23T15:52:14.968Z,28.08
2023-04-23T15:55:22.208Z,27.62
2023-04-23T15:58:27.938Z,27.07
2023-04-23T16:01:34.387Z,27.39
2023-04-23T16:04:43.724Z,26.27
2023-04-23T16:07:50.116Z,25.85
2023-04-23T16:10:57.283Z,26.06
2023-04-23T16:14:03.676Z,26.06
2023-04-23T16:17:09.212Z,26.45
2023-04-23T16:20:18.456Z,26.69
2023-04-23T16:23:23.963Z,27.32
2023-04-23T16:26:31.621Z,27.24
2023-04-23T16:29:37.236Z,26.91
2023-04-23T16:32:44.001Z,26.96
2023-04-23T16:35:52.958Z,26.92
2023-04-23T16:38:59.317Z,27.25
2023-04-23T16:42:04.791Z,26.95
2023-04-23T16:45:12.181Z,27.09
2023-04-23T16:48:20.161Z,26.94
2023-04-23T16:51:30.029Z,26.79
2023-04-23T16:54:36.429Z,27.14
2023-04-23T16:57:42.989Z,27.77
2023-04-23T17:00:49.194Z,28.04
2023-04-23T17:03:56.021Z,28.37
2023-04-23T17:07:04.929Z,28.20
2023-04-23T17:10:12.856Z,29.28
2023-04-23T17:13:18.331Z,29.66
2023-04-23T17:16:25.478Z,29.43
2023-04-23T17:19:31.041Z,29.58
2023-04-23T17:22:40.665Z,29.44
2023-04-23T17:25:47.076Z,30.25
2023-04-23T17:28:53.782Z,29.68
2023-04-23T17:31:59.632Z,29.97
2023-04-23T17:35:10.063Z,30.65
2023-04-23T17:38:20.799Z,32.86
2023-04-23T17:41:27.296Z,33.64
2023-04-23T17:44:32.932Z,36.69
2023-04-23T17:47:41.106Z,42.10
2023-04-23T17:50:48.663Z,44.59
2023-04-23T17:53:58.876Z,39.94
2023-04-23T17:57:07.077Z,45.55
2023-04-23T18:00:16.145Z,43.96
2023-04-23T18:03:22.424Z,46.33
2023-04-23T18:06:29.271Z,46.57
2023-04-23T18:09:37.517Z,47.15
2023-04-23T18:12:44.015Z,46.34
2023-04-23T18:15:50.365Z,49.53
2023-04-23T18:18:56.925Z,47.77
2023-04-23T18:22:03.922Z,51.45
2023-04-23T18:25:13.918Z,53.69
2023-04-23T18:28:19.364Z,51.60
2023-04-23T18:31:25.887Z,52.94
2023-04-23T18:34:35.757Z,50.13
2023-04-23T18:37:50.391Z,49.54
2023-04-23T18:40:59.447Z,48.48
2023-04-23T18:44:05.750Z,46.10
2023-04-23T18:47:11.272Z,45.11
2023-04-23T18:50:40.950Z,42.75
2023-04-23T18:53:46.585Z,42.37
2023-04-23T18:56:56.307Z,42.36
2023-04-23T19:00:01.992Z,40.99
2023-04-23T19:03:23.604Z,41.63
2023-04-23T19:06:32.653Z,42.36
2023-04-23T19:09:39.030Z,41.88
2023-04-23T19:12:47.502Z,42.03
2023-04-23T19:15:54.139Z,41.94
2023-04-23T19:19:00.117Z,42.27
2023-04-23T19:22:06.680Z,41.17
2023-04-23T19:25:13.360Z,43.02
2023-04-23T19:28:24.772Z,43.28
2023-04-23T19:31:31.909Z,43.24
2023-04-23T19:34:38.257Z,42.42
2023-04-23T19:37:43.988Z,42.90
2023-04-23T19:40:51.435Z,42.50
2023-04-23T19:43:59.723Z,43.09
2023-04-23T19:47:06.423Z,44.50
2023-04-23T19:50:14.214Z,44.84
2023-04-23T19:53:22.158Z,45.12
2023-04-23T19:56:27.689Z,45.25
2023-04-23T19:59:37.409Z,47.22
2023-04-23T20:02:43.650Z,46.22
2023-04-23T20:05:50.352Z,48.10
2023-04-23T20:09:08.491Z,47.86
2023-04-23T20:12:16.115Z,48.48
2023-04-23T20:15:26.025Z,49.07
2023-04-23T20:18:34.622Z,49.22
2023-04-23T20:21:41.400Z,49.29
2023-04-23T20:24:49.585Z,49.39
2023-04-23T20:27:55.707Z,50.05
2023-04-23T20:31:05.073Z,49.57
2023-04-23T20:34:11.279Z,49.94
2023-04-23T20:37:21.755Z,51.90
2023-04-23T20:40:28.086Z,52.09
2023-04-23T20:43:39.021Z,51.82
2023-04-23T20:46:49.753Z,53.07
2023-04-23T20:49:56.158Z,52.40
2023-04-23T20:53:01.771Z,52.52
2023-04-23T20:56:08.477Z,52.35
2023-04-23T20:59:14.005Z,52.61
2023-04-23T21:02:23.584Z,53.11
2023-04-23T21:05:29.443Z,53.64
2023-04-23T21:08:36.221Z,53.83
2023-04-23T21:11:42.523Z,54.18
2023-04-23T21:14:49.190Z,54.81
2023-04-23T21:17:57.501Z,54.96
2023-04-23T21:21:04.565Z,54.23
2023-04-23T21:24:10.505Z,55.89
2023-04-23T21:27:22.050Z,55.85
2023-04-23T21:30:49.358Z,55.55
2023-04-23T21:33:58.501Z,55.82
2023-04-23T21:37:04.026Z,55.31
2023-04-23T21:40:12.618Z,56.79
2023-04-23T21:43:19.568Z,56.30
2023-04-23T21:46:27.056Z,56.44
2023-04-23T21:49:36.072Z,56.63
2023-04-23T21:52:46.100Z,57.31
2023-04-23T21:55:52.039Z,57.24
2023-04-23T21:58:58.370Z,56.64
2023-04-23T22:02:04.244Z,56.56
2023-04-23T22:05:13.650Z,55.94
2023-04-23T22:08:19.644Z,56.94
2023-04-23T22:11:26.420Z,56.59
2023-04-23T22:14:32.509Z,56.83
2023-04-23T22:17:39.494Z,56.21
2023-04-23T22:20:51.080Z,56.66
2023-04-23T22:23:57.600Z,56.00
2023-04-23T22:27:03.493Z,55.91
2023-04-23T22:30:13.256Z,56.05
2023-04-23T22:33:18.707Z,56.49
2023-04-23T22:36:28.378Z,56.31
2023-04-23T22:39:33.983Z,56.31
2023-04-23T22:42:40.601Z,56.00
2023-04-23T22:45:46.565Z,55.82
2023-04-23T22:48:53.820Z,55.79
2023-04-23T22:52:02.601Z,55.39
2023-04-23T22:55:10.960Z,55.58
2023-04-23T22:58:16.597Z,55.26
2023-04-23T23:01:23.095Z,54.29
2023-04-23T23:04:28.576Z,54.39
2023-04-23T23:07:37.661Z,54.13
2023-04-23T23:10:43.236Z,54.36
2023-04-23T23:13:49.554Z,54.87
2023-04-23T23:16:55.890Z,55.21
2023-04-23T23:20:02.237Z,55.84
2023-04-23T23:23:10.524Z,55.94
2023-04-23T23:26:16.919Z,56.64
2023-04-23T23:29:22.356Z,56.60
2023-04-23T23:32:28.781Z,55.10
2023-04-23T23:35:34.413Z,54.32
2023-04-23T23:38:43.503Z,54.02
2023-04-23T23:41:49.343Z,53.87
2023-04-23T23:44:55.716Z,53.41
2023-04-23T23:48:02.509Z,52.77
2023-04-23T23:51:09.091Z,53.10
2023-04-23T23:54:17.898Z,53.28
2023-04-23T23:57:24.462Z,52.74
